createdAt,value
2023-05-10T00:00:33.617Z,3.76
2023-05-10T00:01:35.561Z,3.77
2023-05-10T00:02:37.496Z,3.76
2023-05-10T00:03:39.680Z,3.77
2023-05-10T00:04:41.919Z,3.82
2023-05-10T00:05:44.151Z,3.87
2023-05-10T00:06:46.068Z,3.93
2023-05-10T00:07:48.042Z,4.01
2023-05-10T00:08:50.018Z,4.04
2023-05-10T00:09:52.683Z,4.08
2023-05-10T00:10:54.597Z,4.12
2023-05-10T00:11:56.484Z,4.14
2023-05-10T00:12:58.352Z,4.15
2023-05-10T00:14:00.566Z,4.15
2023-05-10T00:15:03.835Z,4.12
2023-05-10T00:16:09.187Z,4.05
2023-05-10T00:17:11.119Z,4.01
2023-05-10T00:18:13.074Z,3.93
2023-05-10T00:19:15.147Z,3.82
2023-05-10T00:20:18.032Z,3.73
2023-05-10T00:21:20.171Z,3.64
2023-05-10T00:22:22.400Z,3.53
2023-05-10T00:23:24.325Z,3.47
2023-05-10T00:24:26.408Z,3.42
2023-05-10T00:25:28.627Z,3.39
2023-05-10T00:26:30.732Z,3.34
2023-05-10T00:27:32.572Z,3.29
2023-05-10T00:28:34.514Z,3.26
2023-05-10T00:29:36.468Z,3.21
2023-05-10T00:30:38.443Z,3.19
2023-05-10T00:31:40.423Z,3.20
2023-05-10T00:32:42.443Z,3.20
2023-05-10T00:33:44.326Z,3.21
2023-05-10T00:34:46.342Z,3.23
2023-05-10T00:35:48.348Z,3.26
2023-05-10T00:36:50.516Z,3.29
2023-05-10T00:37:52.447Z,3.29
2023-05-10T00:38:54.399Z,3.30
2023-05-10T00:39:56.420Z,3.31
2023-05-10T00:40:58.288Z,3.29
2023-05-10T00:42:00.927Z,3.29
2023-05-10T00:43:02.908Z,3.31
2023-05-10T00:44:05.420Z,3.37
2023-05-10T00:45:08.388Z,3.42
2023-05-10T00:46:10.548Z,3.45
2023-05-10T00:47:12.959Z,3.51
2023-05-10T00:48:14.929Z,3.54
2023-05-10T00:49:17.820Z,3.60
2023-05-10T00:50:19.700Z,3.68
2023-05-10T00:51:21.806Z,3.74
2023-05-10T00:52:24.795Z,3.78
2023-05-10T00:53:27.912Z,3.79
2023-05-10T00:54:30.188Z,3.78
2023-05-10T00:55:32.469Z,3.72
2023-05-10T00:56:34.953Z,3.66
2023-05-10T00:57:36.883Z,3.64
2023-05-10T00:58:39.477Z,3.59
2023-05-10T00:59:41.690Z,3.59
2023-05-10T01:02:14.431Z,3.70
2023-05-10T01:03:16.456Z,3.76
2023-05-10T01:04:18.571Z,3.79
2023-05-10T01:05:20.857Z,3.84
2023-05-10T01:06:22.940Z,3.85
2023-05-10T01:07:25.037Z,3.89
2023-05-10T01:08:28.222Z,3.97
2023-05-10T01:09:30.206Z,4.03
2023-05-10T01:10:32.794Z,4.11
2023-05-10T01:11:37.037Z,4.14
2023-05-10T01:12:42.320Z,4.20
2023-05-10T01:13:49.041Z,4.19
2023-05-10T01:14:51.184Z,4.18
2023-05-10T01:15:53.283Z,4.15
2023-05-10T01:16:56.093Z,4.16
2023-05-10T01:17:58.270Z,4.20
2023-05-10T01:19:00.295Z,4.28
2023-05-10T01:20:03.218Z,4.30
2023-05-10T01:21:30.171Z,4.38
2023-05-10T01:23:05.568Z,4.43
2023-05-10T01:24:10.030Z,4.43
2023-05-10T01:25:34.451Z,4.48
2023-05-10T01:26:48.312Z,4.52
2023-05-10T01:28:18.403Z,4.63
2023-05-10T01:29:45.770Z,4.65
2023-05-10T01:31:09.291Z,4.66
2023-05-10T01:32:30.703Z,4.68
2023-05-10T01:33:51.867Z,4.75
2023-05-10T01:35:03.719Z,4.83
2023-05-10T01:36:29.906Z,4.91
2023-05-10T01:37:58.586Z,5.01
2023-05-10T01:39:04.461Z,5.02
2023-05-10T01:40:21.094Z,5.02
2023-05-10T01:41:29.234Z,5.08
2023-05-10T01:42:39.210Z,5.07
2023-05-10T01:43:55.740Z,5.08
2023-05-10T01:45:12.885Z,5.14
2023-05-10T01:46:21.880Z,5.22
2023-05-10T01:47:44.970Z,5.30
2023-05-10T01:48:49.802Z,5.28
2023-05-10T01:49:55.743Z,5.26
2023-05-10T01:50:59.297Z,5.25
2023-05-10T01:52:09.161Z,5.19
2023-05-10T01:53:14.096Z,5.15
2023-05-10T01:54:20.448Z,5.15
2023-05-10T01:55:26.412Z,5.15
2023-05-10T01:56:30.978Z,5.15
2023-05-10T01:57:36.448Z,5.12
2023-05-10T01:58:42.137Z,5.16
2023-05-10T01:59:49.136Z,5.17
2023-05-10T02:00:53.589Z,5.20
2023-05-10T02:01:58.715Z,5.25
2023-05-10T02:03:05.066Z,5.31
2023-05-10T02:04:10.202Z,5.40
2023-05-10T02:05:14.190Z,5.47
2023-05-10T02:06:18.166Z,5.47
2023-05-10T02:07:21.303Z,5.48
2023-05-10T02:08:23.795Z,5.46
2023-05-10T02:09:28.437Z,5.44
2023-05-10T02:10:30.832Z,5.43
2023-05-10T02:11:33.921Z,5.43
2023-05-10T02:12:42.600Z,5.45
2023-05-10T02:13:46.150Z,5.46
2023-05-10T02:14:49.107Z,5.47
2023-05-10T02:15:52.836Z,5.49
2023-05-10T02:16:56.619Z,5.51
2023-05-10T02:18:01.249Z,5.52
2023-05-10T02:19:04.378Z,5.60
2023-05-10T02:20:08.919Z,5.69
2023-05-10T02:21:12.201Z,5.84
2023-05-10T02:22:15.791Z,6.08
2023-05-10T02:23:18.695Z,6.38
2023-05-10T02:24:22.584Z,6.76
2023-05-10T02:25:26.862Z,7.22
2023-05-10T02:26:30.157Z,7.68
2023-05-10T02:27:32.796Z,8.06
2023-05-10T02:28:36.745Z,8.36
2023-05-10T02:29:40.511Z,8.58
2023-05-10T02:30:43.342Z,8.67
2023-05-10T02:31:45.917Z,8.75
2023-05-10T02:32:50.330Z,8.83
2023-05-10T02:33:52.595Z,8.96
2023-05-10T02:34:55.987Z,9.09
2023-05-10T02:35:58.200Z,9.21
2023-05-10T02:37:01.218Z,9.34
2023-05-10T02:38:04.325Z,9.59
2023-05-10T02:39:11.236Z,9.86
2023-05-10T02:40:14.277Z,10.12
2023-05-10T02:41:17.423Z,10.28
2023-05-10T02:42:23.651Z,10.44
2023-05-10T02:43:26.904Z,10.64
2023-05-10T02:44:32.261Z,10.73
2023-05-10T02:45:37.552Z,10.87
2023-05-10T02:46:39.740Z,10.99
2023-05-10T02:47:41.979Z,11.14
2023-05-10T02:48:44.044Z,11.26
2023-05-10T02:49:46.399Z,11.44
2023-05-10T02:50:52.513Z,11.63
2023-05-10T02:52:01.806Z,11.88
2023-05-10T02:53:13.235Z,12.15
2023-05-10T02:54:28.585Z,12.36
2023-05-10T02:55:36.562Z,12.52
2023-05-10T02:56:44.243Z,12.67
2023-05-10T02:58:01.330Z,12.91
2023-05-10T02:59:03.541Z,12.93
2023-05-10T03:00:06.047Z,13.00
2023-05-10T03:01:10.233Z,13.07
2023-05-10T03:02:14.189Z,13.12
2023-05-10T03:03:16.259Z,13.19
2023-05-10T03:04:18.466Z,13.27
2023-05-10T03:05:21.296Z,13.52
2023-05-10T03:06:23.255Z,13.57
2023-05-10T03:07:25.523Z,13.65
2023-05-10T03:08:30.445Z,13.72
2023-05-10T03:09:33.498Z,13.93
2023-05-10T03:10:42.428Z,14.08
2023-05-10T03:11:56.599Z,14.14
2023-05-10T03:13:11.629Z,14.35
2023-05-10T03:14:57.493Z,14.45
2023-05-10T03:16:09.149Z,14.53
2023-05-10T03:17:27.028Z,14.68
2023-05-10T03:18:43.236Z,14.69
2023-05-10T03:19:55.532Z,14.70
2023-05-10T03:21:03.009Z,14.67
2023-05-10T03:22:08.763Z,14.61
2023-05-10T03:23:23.194Z,14.67
2023-05-10T03:24:28.509Z,14.67
2023-05-10T03:25:32.316Z,14.55
2023-05-10T03:26:35.136Z,14.43
2023-05-10T03:27:40.200Z,14.41
2023-05-10T03:28:42.970Z,14.33
2023-05-10T03:29:47.563Z,14.34
2023-05-10T03:30:51.115Z,14.39
2023-05-10T03:31:53.356Z,14.32
2023-05-10T03:32:55.529Z,14.30
2023-05-10T03:33:57.456Z,14.21
2023-05-10T03:34:59.316Z,14.11
2023-05-10T03:36:01.575Z,13.93
2023-05-10T03:37:03.613Z,13.76
2023-05-10T03:38:05.724Z,13.57
2023-05-10T03:39:07.657Z,13.47
2023-05-10T03:40:10.037Z,13.21
2023-05-10T03:41:12.295Z,13.15
2023-05-10T03:42:14.088Z,13.27
2023-05-10T03:43:16.093Z,13.33
2023-05-10T03:44:18.781Z,13.38
2023-05-10T03:45:20.665Z,13.31
2023-05-10T03:46:22.608Z,13.32
2023-05-10T03:47:24.999Z,13.28
2023-05-10T03:48:26.836Z,13.25
2023-05-10T03:49:28.695Z,13.19
2023-05-10T03:50:30.830Z,13.11
2023-05-10T03:51:33.056Z,13.06
2023-05-10T03:52:34.937Z,13.05
2023-05-10T03:53:37.043Z,13.10
2023-05-10T03:54:39.043Z,13.20
2023-05-10T03:55:41.105Z,13.27
2023-05-10T03:56:43.177Z,13.22
2023-05-10T03:57:45.501Z,13.13
2023-05-10T03:58:47.488Z,12.99
2023-05-10T03:59:49.454Z,12.73
2023-05-10T04:00:52.578Z,12.51
2023-05-10T04:01:54.509Z,12.36
2023-05-10T04:02:56.636Z,12.33
2023-05-10T04:03:58.818Z,12.22
2023-05-10T04:05:00.753Z,12.10
2023-05-10T04:06:03.325Z,11.99
2023-05-10T04:07:05.257Z,12.03
2023-05-10T04:08:07.650Z,12.05
2023-05-10T04:09:09.675Z,12.04
2023-05-10T04:10:12.602Z,12.00
2023-05-10T04:11:15.264Z,11.99
2023-05-10T04:12:17.209Z,11.94
2023-05-10T04:13:19.176Z,11.84
2023-05-10T04:14:21.180Z,11.82
2023-05-10T04:15:23.311Z,11.87
2023-05-10T04:16:25.313Z,12.03
2023-05-10T04:17:27.208Z,12.19
2023-05-10T04:18:29.203Z,12.27
2023-05-10T04:19:31.907Z,12.36
2023-05-10T04:20:34.507Z,12.50
2023-05-10T04:21:36.488Z,12.71
2023-05-10T04:22:38.726Z,12.95
2023-05-10T04:23:41.288Z,13.21
2023-05-10T04:24:43.201Z,13.52
2023-05-10T04:25:45.139Z,13.72
2023-05-10T04:26:47.143Z,13.84
2023-05-10T04:27:48.990Z,14.08
2023-05-10T04:28:51.050Z,14.19
2023-05-10T04:29:52.890Z,14.27
2023-05-10T04:30:54.989Z,14.37
2023-05-10T04:31:57.739Z,14.45
2023-05-10T04:32:59.616Z,14.40
2023-05-10T04:34:01.470Z,14.38
2023-05-10T04:35:04.737Z,14.31
2023-05-10T04:36:07.279Z,14.32
2023-05-10T04:37:09.298Z,14.27
2023-05-10T04:38:11.206Z,14.38
2023-05-10T04:39:13.203Z,14.55
2023-05-10T04:40:15.301Z,14.76
2023-05-10T04:41:17.562Z,14.86
2023-05-10T04:42:19.344Z,14.90
2023-05-10T04:43:21.504Z,14.95
2023-05-10T04:44:23.498Z,14.96
2023-05-10T04:45:25.518Z,14.91
2023-05-10T04:46:27.408Z,14.93
2023-05-10T04:47:29.462Z,15.01
2023-05-10T04:48:31.281Z,15.05
2023-05-10T04:49:33.433Z,15.08
2023-05-10T04:50:35.262Z,15.14
2023-05-10T04:51:37.162Z,14.97
2023-05-10T04:52:38.924Z,14.81
2023-05-10T04:53:41.828Z,14.64
2023-05-10T04:54:44.956Z,14.34
2023-05-10T04:55:47.782Z,14.30
2023-05-10T04:56:49.576Z,14.36
2023-05-10T04:57:51.764Z,14.53
2023-05-10T04:58:53.565Z,14.77
2023-05-10T04:59:55.616Z,14.96
2023-05-10T05:00:57.758Z,15.03
2023-05-10T05:01:59.777Z,14.99
2023-05-10T05:03:01.890Z,14.94
2023-05-10T05:04:04.166Z,14.82
2023-05-10T05:05:06.626Z,14.75
2023-05-10T05:06:08.667Z,14.49
2023-05-10T05:07:10.506Z,14.33
2023-05-10T05:08:12.625Z,14.18
2023-05-10T05:09:14.467Z,13.99
2023-05-10T05:10:16.746Z,13.88
2023-05-10T05:11:19.064Z,13.80
2023-05-10T05:12:21.021Z,13.69
2023-05-10T05:13:23.150Z,13.72
2023-05-10T05:14:26.345Z,13.82
2023-05-10T05:15:28.680Z,13.95
2023-05-10T05:16:32.985Z,14.01
2023-05-10T05:17:34.861Z,14.16
2023-05-10T05:18:36.737Z,14.28
2023-05-10T05:19:38.607Z,14.34
2023-05-10T05:20:41.001Z,14.32
2023-05-10T05:21:42.921Z,14.32
2023-05-10T05:22:44.810Z,14.24
2023-05-10T05:23:47.344Z,14.13
2023-05-10T05:24:49.294Z,14.09
2023-05-10T05:25:52.379Z,14.13
2023-05-10T05:26:54.339Z,14.23
2023-05-10T05:27:56.319Z,14.42
2023-05-10T05:28:58.281Z,14.58
2023-05-10T05:30:00.103Z,14.63
2023-05-10T05:31:02.265Z,14.69
2023-05-10T05:32:04.587Z,14.79
2023-05-10T05:33:06.830Z,14.86
2023-05-10T05:34:08.735Z,14.95
2023-05-10T05:35:11.094Z,15.03
2023-05-10T05:36:13.002Z,15.11
2023-05-10T05:37:16.199Z,15.02
2023-05-10T05:38:18.661Z,14.96
2023-05-10T05:39:20.723Z,14.88
2023-05-10T05:40:22.643Z,14.69
2023-05-10T05:41:25.686Z,14.69
2023-05-10T05:42:27.568Z,14.60
2023-05-10T05:43:29.514Z,14.45
2023-05-10T05:44:31.571Z,14.33
2023-05-10T05:45:33.501Z,14.31
2023-05-10T05:46:35.892Z,14.32
2023-05-10T05:47:37.950Z,14.34
2023-05-10T05:48:39.804Z,14.39
2023-05-10T05:49:42.054Z,14.44
2023-05-10T05:50:43.897Z,14.50
2023-05-10T05:51:46.236Z,14.64
2023-05-10T05:52:48.031Z,14.87
2023-05-10T05:53:49.976Z,15.17
2023-05-10T05:54:51.913Z,15.41
2023-05-10T05:55:58.906Z,15.72
2023-05-10T05:57:01.885Z,15.78
2023-05-10T05:58:04.245Z,15.87
2023-05-10T05:59:06.117Z,15.95
2023-05-10T06:00:08.937Z,16.01
2023-05-10T06:01:10.912Z,16.00
2023-05-10T06:02:13.077Z,16.00
2023-05-10T06:03:15.517Z,16.03
2023-05-10T06:04:18.415Z,16.15
2023-05-10T06:05:21.340Z,16.33
2023-05-10T06:06:23.378Z,16.11
2023-05-10T06:07:25.268Z,16.10
2023-05-10T06:08:27.258Z,15.91
2023-05-10T06:09:29.071Z,15.73
2023-05-10T06:10:31.743Z,15.73
2023-05-10T06:11:34.183Z,15.78
2023-05-10T06:12:36.877Z,15.87
2023-05-10T06:13:38.808Z,15.84
2023-05-10T06:14:40.778Z,16.03
2023-05-10T06:15:42.635Z,16.18
2023-05-10T06:16:44.781Z,16.32
2023-05-10T06:17:48.302Z,16.45
2023-05-10T06:18:50.389Z,16.54
2023-05-10T06:19:52.221Z,16.59
2023-05-10T06:20:54.060Z,16.58
2023-05-10T06:21:56.048Z,16.59
2023-05-10T06:22:59.001Z,16.64
2023-05-10T06:24:00.852Z,16.60
2023-05-10T06:25:03.213Z,16.57
2023-05-10T06:26:05.292Z,16.55
2023-05-10T06:27:07.575Z,16.57
2023-05-10T06:28:09.396Z,16.56
2023-05-10T06:29:11.539Z,16.50
2023-05-10T06:30:15.129Z,16.59
2023-05-10T06:31:17.424Z,16.96
2023-05-10T06:32:19.207Z,16.85
2023-05-10T06:33:21.335Z,16.87
2023-05-10T06:34:23.152Z,16.84
2023-05-10T06:35:25.432Z,16.61
2023-05-10T06:36:28.342Z,16.38
2023-05-10T06:37:30.384Z,16.27
2023-05-10T06:38:32.176Z,16.16
2023-05-10T06:39:34.060Z,16.03
2023-05-10T06:40:37.083Z,15.90
2023-05-10T06:41:39.082Z,15.98
2023-05-10T06:42:40.864Z,15.66
2023-05-10T06:43:44.372Z,15.42
2023-05-10T06:44:46.137Z,15.39
2023-05-10T06:45:49.516Z,15.33
2023-05-10T06:46:51.704Z,15.23
2023-05-10T06:47:54.062Z,15.18
2023-05-10T06:48:55.898Z,15.18
2023-05-10T06:49:57.819Z,15.20
2023-05-10T06:50:59.671Z,15.30
2023-05-10T06:52:01.624Z,15.19
2023-05-10T06:53:03.547Z,14.95
2023-05-10T06:54:05.395Z,14.95
2023-05-10T06:55:08.096Z,14.92
2023-05-10T06:56:10.096Z,14.81
2023-05-10T06:57:23.419Z,14.82
2023-05-10T06:58:33.923Z,14.91
2023-05-10T06:59:37.475Z,15.00
2023-05-10T07:00:41.712Z,14.99
2023-05-10T07:01:44.071Z,14.93
2023-05-10T07:02:47.876Z,14.91
2023-05-10T07:03:50.060Z,14.93
2023-05-10T07:04:53.134Z,14.97
2023-05-10T07:05:56.237Z,14.99
2023-05-10T07:06:58.833Z,15.10
2023-05-10T07:08:01.170Z,14.99
2023-05-10T07:09:03.427Z,15.04
2023-05-10T07:10:05.870Z,15.08
2023-05-10T07:11:11.853Z,15.04
2023-05-10T07:12:15.281Z,15.03
2023-05-10T07:13:17.744Z,15.04
2023-05-10T07:14:19.784Z,15.07
2023-05-10T07:15:21.930Z,15.18
2023-05-10T07:16:24.108Z,15.20
2023-05-10T07:17:26.417Z,15.17
2023-05-10T07:18:28.622Z,15.19
2023-05-10T07:19:31.023Z,15.06
2023-05-10T07:20:32.923Z,14.94
2023-05-10T07:21:36.334Z,14.89
2023-05-10T07:22:38.252Z,14.95
2023-05-10T07:23:40.719Z,15.05
2023-05-10T07:24:43.711Z,15.04
2023-05-10T07:25:49.916Z,15.06
2023-05-10T07:26:51.821Z,15.03
2023-05-10T07:27:54.150Z,15.04
2023-05-10T07:28:56.583Z,15.09
2023-05-10T07:29:58.537Z,15.00
2023-05-10T07:31:00.399Z,15.07
2023-05-10T07:32:02.601Z,15.19
2023-05-10T07:33:04.613Z,15.27
2023-05-10T07:34:06.643Z,15.33
2023-05-10T07:35:09.377Z,15.41
2023-05-10T07:36:11.335Z,15.39
2023-05-10T07:37:13.400Z,15.41
2023-05-10T07:38:15.443Z,15.44
2023-05-10T07:39:26.506Z,15.46
2023-05-10T07:40:30.528Z,15.33
2023-05-10T07:41:32.588Z,15.27
2023-05-10T07:42:35.747Z,15.29
2023-05-10T07:43:37.589Z,15.39
2023-05-10T07:44:39.566Z,15.41
2023-05-10T07:45:41.439Z,15.44
2023-05-10T07:46:43.307Z,15.45
2023-05-10T07:47:45.291Z,15.47
2023-05-10T07:48:47.384Z,15.60
2023-05-10T07:49:49.337Z,15.64
2023-05-10T07:50:51.330Z,15.71
2023-05-10T07:51:53.371Z,15.72
2023-05-10T07:52:55.489Z,15.68
2023-05-10T07:53:58.947Z,15.55
2023-05-10T07:55:00.956Z,15.26
2023-05-10T07:56:26.238Z,15.28
2023-05-10T07:57:28.367Z,15.25
2023-05-10T07:58:30.170Z,15.19
2023-05-10T07:59:32.172Z,15.15
2023-05-10T08:00:34.297Z,15.26
2023-05-10T08:01:36.324Z,15.48
2023-05-10T08:02:38.665Z,15.57
2023-05-10T08:03:40.769Z,15.61
2023-05-10T08:04:42.831Z,15.55
2023-05-10T08:05:44.971Z,15.49
2023-05-10T08:06:46.822Z,15.36
2023-05-10T08:07:48.815Z,15.09
2023-05-10T08:08:51.737Z,14.92
2023-05-10T08:09:53.728Z,14.70
2023-05-10T08:10:55.541Z,14.63
2023-05-10T08:11:57.656Z,14.68
2023-05-10T08:13:02.554Z,14.64
2023-05-10T08:14:04.719Z,14.56
2023-05-10T08:15:08.143Z,14.58
2023-05-10T08:16:10.650Z,14.68
2023-05-10T08:17:12.561Z,14.82
2023-05-10T08:18:14.914Z,14.98
2023-05-10T08:19:20.187Z,15.03
2023-05-10T08:20:22.179Z,15.07
2023-05-10T08:21:24.006Z,15.11
2023-05-10T08:22:25.853Z,15.07
2023-05-10T08:23:27.782Z,15.03
2023-05-10T08:24:29.604Z,14.96
2023-05-10T08:25:32.261Z,14.83
2023-05-10T08:26:34.955Z,14.81
2023-05-10T08:27:36.939Z,14.91
2023-05-10T08:28:39.109Z,15.07
2023-05-10T08:29:49.610Z,15.23
2023-05-10T08:30:52.396Z,15.35
2023-05-10T08:31:54.359Z,15.36
2023-05-10T08:32:56.220Z,15.38
2023-05-10T08:33:58.175Z,15.52
2023-05-10T08:35:00.170Z,15.61
2023-05-10T08:36:02.036Z,15.67
2023-05-10T08:37:04.824Z,15.78
2023-05-10T08:38:06.856Z,15.85
2023-05-10T08:39:16.150Z,15.89
2023-05-10T08:40:27.231Z,15.95
2023-05-10T08:41:31.321Z,15.93
2023-05-10T08:42:37.263Z,15.91
2023-05-10T08:43:40.181Z,15.90
2023-05-10T08:44:43.486Z,15.94
2023-05-10T08:45:48.082Z,15.94
2023-05-10T08:46:54.793Z,15.83
2023-05-10T08:47:56.998Z,15.83
2023-05-10T08:49:01.014Z,15.93
2023-05-10T08:50:04.049Z,16.09
2023-05-10T08:51:06.361Z,16.07
2023-05-10T08:52:09.443Z,16.00
2023-05-10T08:53:13.715Z,16.12
2023-05-10T08:54:16.600Z,16.19
2023-05-10T08:55:19.480Z,16.16
2023-05-10T08:56:21.934Z,16.19
2023-05-10T08:57:24.045Z,16.24
2023-05-10T08:58:26.350Z,16.25
2023-05-10T08:59:28.864Z,16.25
2023-05-10T09:00:31.122Z,16.28
2023-05-10T09:01:34.926Z,16.34
2023-05-10T09:02:38.292Z,16.55
2023-05-10T09:03:40.555Z,16.50
2023-05-10T09:04:43.062Z,16.34
2023-05-10T09:05:45.900Z,16.45
2023-05-10T09:06:48.150Z,16.52
2023-05-10T09:07:50.568Z,16.58
2023-05-10T09:08:53.558Z,16.38
2023-05-10T09:09:55.745Z,16.34
2023-05-10T09:10:58.195Z,16.43
2023-05-10T09:12:00.961Z,16.43
2023-05-10T09:13:03.941Z,16.46
2023-05-10T09:14:06.057Z,16.54
2023-05-10T09:15:10.576Z,16.50
2023-05-10T09:16:21.120Z,16.48
2023-05-10T09:17:25.771Z,16.35
2023-05-10T09:18:28.136Z,16.27
2023-05-10T09:19:30.531Z,16.28
2023-05-10T09:20:32.490Z,16.17
2023-05-10T09:21:37.822Z,16.14
2023-05-10T09:22:39.873Z,16.13
2023-05-10T09:23:48.246Z,16.20
2023-05-10T09:25:12.269Z,16.25
2023-05-10T09:26:14.235Z,16.32
2023-05-10T09:27:16.029Z,16.39
2023-05-10T09:28:18.083Z,16.51
2023-05-10T09:29:19.941Z,16.64
2023-05-10T09:30:30.235Z,16.79
2023-05-10T09:31:48.135Z,17.00
2023-05-10T09:32:51.386Z,17.05
2023-05-10T09:33:53.633Z,17.07
2023-05-10T09:34:55.536Z,17.10
2023-05-10T09:36:09.103Z,17.12
2023-05-10T09:37:11.684Z,17.10
2023-05-10T09:38:13.747Z,17.09
2023-05-10T09:39:15.540Z,17.10
2023-05-10T09:40:28.260Z,17.15
2023-05-10T09:41:30.352Z,17.20
2023-05-10T09:42:32.408Z,17.36
2023-05-10T09:43:39.353Z,17.34
2023-05-10T09:44:42.081Z,17.15
2023-05-10T09:45:44.091Z,17.15
2023-05-10T09:46:50.548Z,17.08
2023-05-10T09:47:53.076Z,16.91
2023-05-10T09:48:54.963Z,16.98
2023-05-10T09:50:04.056Z,16.90
2023-05-10T09:51:08.634Z,16.89
2023-05-10T09:52:10.558Z,16.98
2023-05-10T09:53:16.702Z,17.00
2023-05-10T09:54:19.136Z,17.00
2023-05-10T09:55:26.232Z,16.98
2023-05-10T09:56:40.009Z,16.98
2023-05-10T09:57:42.386Z,17.09
2023-05-10T09:58:44.269Z,17.21
2023-05-10T09:59:46.370Z,17.32
2023-05-10T10:00:53.322Z,17.22
2023-05-10T10:02:00.733Z,17.29
2023-05-10T10:03:04.546Z,17.25
2023-05-10T10:04:07.081Z,17.43
2023-05-10T10:05:09.845Z,17.41
2023-05-10T10:06:22.874Z,17.43
2023-05-10T10:07:31.778Z,17.52
2023-05-10T10:08:33.962Z,17.58
2023-05-10T10:09:36.665Z,17.45
2023-05-10T10:10:41.683Z,17.35
2023-05-10T10:11:43.721Z,17.36
2023-05-10T10:12:45.728Z,17.40
2023-05-10T10:13:47.648Z,17.41
2023-05-10T10:14:51.465Z,17.39
2023-05-10T10:15:55.937Z,17.41
2023-05-10T10:17:07.439Z,17.44
2023-05-10T10:18:14.197Z,17.51
2023-05-10T10:19:16.441Z,17.47
2023-05-10T10:20:19.917Z,17.34
2023-05-10T10:21:23.093Z,17.17
2023-05-10T10:22:25.359Z,16.85
2023-05-10T10:23:28.490Z,16.72
2023-05-10T10:24:30.460Z,16.65
2023-05-10T10:25:32.810Z,16.69
2023-05-10T10:26:37.338Z,16.69
2023-05-10T10:27:54.547Z,16.71
2023-05-10T10:29:16.240Z,16.77
2023-05-10T10:30:33.364Z,16.81
2023-05-10T10:31:54.816Z,16.77
2023-05-10T10:33:10.195Z,16.60
2023-05-10T10:34:28.375Z,16.69
2023-05-10T10:35:32.134Z,16.72
2023-05-10T10:36:41.364Z,16.74
2023-05-10T10:37:45.910Z,16.75
2023-05-10T10:38:47.813Z,16.82
2023-05-10T10:39:51.480Z,16.91
2023-05-10T10:41:29.053Z,17.02
2023-05-10T10:42:47.285Z,17.11
2023-05-10T10:43:49.221Z,17.11
2023-05-10T10:45:11.045Z,17.16
2023-05-10T10:46:18.711Z,17.21
2023-05-10T10:47:25.290Z,17.21
2023-05-10T10:48:27.382Z,17.25
2023-05-10T10:49:33.033Z,17.13
2023-05-10T10:50:45.183Z,17.33
2023-05-10T10:52:16.966Z,17.33
2023-05-10T10:53:19.051Z,17.29
2023-05-10T10:54:29.498Z,17.31
2023-05-10T10:55:31.645Z,17.31
2023-05-10T10:56:35.164Z,17.26
2023-05-10T10:57:41.406Z,17.17
2023-05-10T10:58:52.518Z,17.11
2023-05-10T11:00:37.188Z,17.03
2023-05-10T11:01:43.891Z,16.91
2023-05-10T11:02:49.180Z,16.86
2023-05-10T11:04:00.166Z,16.76
2023-05-10T11:05:35.330Z,16.66
2023-05-10T11:06:37.701Z,16.56
2023-05-10T11:07:53.063Z,16.52
2023-05-10T11:08:55.964Z,16.44
2023-05-10T11:10:05.667Z,16.43
2023-05-10T11:11:08.447Z,16.45
2023-05-10T11:12:10.488Z,16.41
2023-05-10T11:13:12.357Z,16.33
2023-05-10T11:14:14.257Z,16.34
2023-05-10T11:15:16.527Z,16.34
2023-05-10T11:16:18.814Z,16.32
2023-05-10T11:17:29.087Z,16.34
2023-05-10T11:18:31.651Z,16.44
2023-05-10T11:19:33.537Z,16.41
2023-05-10T11:20:41.686Z,16.39
2023-05-10T11:22:06.440Z,16.39
2023-05-10T11:23:16.932Z,16.41
2023-05-10T11:24:21.852Z,16.50
2023-05-10T11:25:29.576Z,16.48
2023-05-10T11:26:33.634Z,16.47
2023-05-10T11:27:39.173Z,16.44
2023-05-10T11:28:49.261Z,16.49
2023-05-10T11:29:54.268Z,16.65
2023-05-10T11:30:56.958Z,16.86
2023-05-10T11:32:00.866Z,17.00
2023-05-10T11:33:02.830Z,17.07
2023-05-10T11:34:04.776Z,17.14
2023-05-10T11:35:13.060Z,17.23
2023-05-10T11:36:20.924Z,17.32
2023-05-10T11:37:22.913Z,17.40
2023-05-10T11:38:24.935Z,17.48
2023-05-10T11:39:32.669Z,17.60
2023-05-10T11:40:35.525Z,17.51
2023-05-10T11:41:37.368Z,17.44
2023-05-10T11:42:39.589Z,17.46
2023-05-10T11:43:41.631Z,17.56
2023-05-10T11:44:48.000Z,17.64
2023-05-10T11:45:49.867Z,17.69
2023-05-10T11:46:51.951Z,17.69
2023-05-10T11:47:53.879Z,17.71
2023-05-10T11:49:08.048Z,17.58
2023-05-10T11:50:12.005Z,17.47
2023-05-10T11:51:14.030Z,17.45
2023-05-10T11:52:16.016Z,17.46
2023-05-10T11:53:17.922Z,17.50
2023-05-10T11:54:19.707Z,17.44
2023-05-10T11:55:21.822Z,17.48
2023-05-10T11:56:24.663Z,17.55
2023-05-10T11:57:29.835Z,17.73
2023-05-10T11:58:33.073Z,17.70
2023-05-10T11:59:35.051Z,17.58
2023-05-10T12:00:37.077Z,17.46
2023-05-10T12:01:39.181Z,17.42
2023-05-10T12:02:41.637Z,17.52
2023-05-10T12:03:43.777Z,17.47
2023-05-10T12:04:45.950Z,17.42
2023-05-10T12:05:47.964Z,17.49
2023-05-10T12:06:49.991Z,17.36
2023-05-10T12:07:52.054Z,17.37
2023-05-10T12:08:54.805Z,17.38
2023-05-10T12:10:18.495Z,17.44
2023-05-10T12:11:22.807Z,17.43
2023-05-10T12:12:24.737Z,17.36
2023-05-10T12:13:26.720Z,17.32
2023-05-10T12:14:29.853Z,17.14
2023-05-10T12:15:31.869Z,17.06
2023-05-10T12:16:33.902Z,16.96
2023-05-10T12:17:39.883Z,16.86
2023-05-10T12:18:43.926Z,16.83
2023-05-10T12:19:45.704Z,16.86
2023-05-10T12:20:47.754Z,16.87
2023-05-10T12:21:50.139Z,16.91
2023-05-10T12:22:54.598Z,16.95
2023-05-10T12:24:02.542Z,17.11
2023-05-10T12:25:05.282Z,17.16
2023-05-10T12:26:07.929Z,17.16
2023-05-10T12:27:12.794Z,17.05
2023-05-10T12:28:14.700Z,17.09
2023-05-10T12:29:18.406Z,17.17
2023-05-10T12:30:24.855Z,17.36
2023-05-10T12:31:26.844Z,17.35
2023-05-10T12:32:42.141Z,17.42
2023-05-10T12:33:45.722Z,17.49
2023-05-10T12:34:48.616Z,17.54
2023-05-10T12:35:55.567Z,17.60
2023-05-10T12:36:57.730Z,17.68
2023-05-10T12:38:00.054Z,17.62
2023-05-10T12:39:05.904Z,17.48
2023-05-10T12:40:10.453Z,17.47
2023-05-10T12:41:14.646Z,17.54
2023-05-10T12:42:17.580Z,17.54
2023-05-10T12:43:19.405Z,17.60
2023-05-10T12:44:21.299Z,17.67
2023-05-10T12:45:23.351Z,17.74
2023-05-10T12:46:28.886Z,17.87
2023-05-10T12:47:31.261Z,17.97
2023-05-10T12:48:34.897Z,17.95
2023-05-10T12:49:36.813Z,17.90
2023-05-10T12:50:38.726Z,17.75
2023-05-10T12:51:40.607Z,17.78
2023-05-10T12:52:42.514Z,17.78
2023-05-10T12:53:49.358Z,17.77
2023-05-10T12:54:51.662Z,17.84
2023-05-10T12:55:54.447Z,17.89
2023-05-10T12:56:56.525Z,17.89
2023-05-10T12:57:59.036Z,17.88
2023-05-10T12:59:01.092Z,17.93
2023-05-10T13:00:03.648Z,17.91
2023-05-10T13:01:08.081Z,17.88
2023-05-10T13:02:10.089Z,17.94
2023-05-10T13:03:12.199Z,17.97
2023-05-10T13:04:14.302Z,17.94
2023-05-10T13:05:16.313Z,17.89
2023-05-10T13:06:18.279Z,17.81
2023-05-10T13:07:20.429Z,17.74
2023-05-10T13:08:22.380Z,17.75
2023-05-10T13:09:24.270Z,17.68
2023-05-10T13:10:26.293Z,17.67
2023-05-10T13:11:28.776Z,17.67
2023-05-10T13:12:30.866Z,17.65
2023-05-10T13:13:32.871Z,17.61
2023-05-10T13:14:34.720Z,17.63
2023-05-10T13:15:36.734Z,17.72
2023-05-10T13:16:38.761Z,17.73
2023-05-10T13:17:41.890Z,17.74
2023-05-10T13:18:43.783Z,17.74
2023-05-10T13:19:45.895Z,17.77
2023-05-10T13:20:48.065Z,17.79
2023-05-10T13:21:50.032Z,17.81
2023-05-10T13:22:52.306Z,17.90
2023-05-10T13:23:54.466Z,17.90
2023-05-10T13:24:56.280Z,17.81
2023-05-10T13:25:58.705Z,17.73
2023-05-10T13:27:00.518Z,17.57
2023-05-10T13:28:03.356Z,17.53
2023-05-10T13:29:05.400Z,17.57
2023-05-10T13:30:10.840Z,17.58
2023-05-10T13:31:12.840Z,17.63
2023-05-10T13:32:14.720Z,17.62
2023-05-10T13:33:16.673Z,17.64
2023-05-10T13:34:21.494Z,17.68
2023-05-10T13:35:23.562Z,17.74
2023-05-10T13:36:25.477Z,17.79
2023-05-10T13:37:27.472Z,17.85
2023-05-10T13:38:29.521Z,17.88
2023-05-10T13:39:34.431Z,17.94
2023-05-10T13:40:37.104Z,17.94
2023-05-10T13:41:39.206Z,17.99
2023-05-10T13:42:41.116Z,17.99
2023-05-10T13:43:43.060Z,18.00
2023-05-10T13:44:45.565Z,18.01
2023-05-10T13:45:47.556Z,18.03
2023-05-10T13:46:49.498Z,18.06
2023-05-10T13:47:51.467Z,18.01
2023-05-10T13:48:53.498Z,18.03
2023-05-10T13:49:55.586Z,18.13
2023-05-10T13:50:57.713Z,18.15
2023-05-10T13:51:59.984Z,18.06
2023-05-10T13:53:01.916Z,18.08
2023-05-10T13:54:04.419Z,18.09